Terminal Aerodrome Forecast
Issued by NWS

Current Version | Previous Version | Text Only | Print | Product List | Glossary On
Versions: 1 2 3 4 5 6 7 8 9 10 11 12 13 14 15 16 17 18 19 20 21 22 23
000
FTAK31 PANC 182333
TAFACD
TAF
PACD 182333Z 1900/1924 34011KT P6SM VCSH SCT015 BKN025 BKN040
      TEMPO 1900/1904 SCT025 BKN040
     FM191800 29011KT P6SM VCSH SCT015 BKN025=

USA.gov is the U.S. government's official web portal to all federal, state and local government web resources and services.